EW0072 Weather Reports


Display with metric or nautical units.
time (UTC)temp
F
wind
direction
speed
MPH
gust
MPH
rain 1hr
in
rain 24hr
in
rain mn
in
humidity
%
barometer
mb
20240725023013 86 360 0.0 7.0 0.00 0.00 0.00 19 1004.3
20240725021512 87 360 4.0 9.0 0.00 0.00 0.00 18 1004.3
20240725020011 88 360 0.0 4.0 0.00 0.00 0.00 17 1004.2
20240725014514 89 360 0.0 5.0 0.00 0.00 0.00 16 1004.1
20240725013024 89 360 0.0 0.0 0.00 0.00 0.00 17 1004.2
20240725011559 90 360 0.0 5.0 0.00 0.00 0.00 17 1004.1
20240725010100 90 360 0.0 6.0 0.00 0.00 0.00 16 1004.1
20240725004559 90 360 0.0 5.0 0.00 0.00 0.00 15 1004.0
20240725003108 91 360 0.0 0.0 0.00 0.00 0.00 14 1004.1
20240725001556 91 360 0.0 0.0 0.00 0.00 0.00 14 1004.2
20240725000106 92 360 0.0 0.0 0.00 0.00 0.00 14 1004.2
20240724234555 91 360 0.0 0.0 0.00 0.00 0.00 14 1004.2
20240724233055 92 360 0.0 7.0 0.00 0.00 0.00 13 1004.3
20240724231543 92 360 3.0 7.0 0.00 0.00 0.00 14 1004.3
20240724230041 94 360 2.0 6.0 0.00 0.00 0.00 14 1004.2
20240724224541 93 360 0.0 8.0 0.00 0.00 0.00 15 1004.3
20240724223040 93 360 6.0 11.0 0.00 0.00 0.00 14 1004.2
20240724221539 92 360 4.0 8.0 0.00 0.00 0.00 14 1004.4
20240724220038 92 360 3.0 10.0 0.00 0.00 0.00 13 1004.6
20240724214538 92 360 4.0 9.0 0.00 0.00 0.00 15 1004.7
20240724213043 93 360 1.0 10.0 0.00 0.00 0.00 14 1004.8
20240724211535 93 360 1.0 9.0 0.00 0.00 0.00 15 1004.9
20240724210024 93 360 3.0 9.0 0.00 0.00 0.00 15 1005.0
20240724204531 92 360 0.0 8.0 0.00 0.00 0.00 15 1005.1
20240724203019 92 360 0.0 6.0 0.00 0.00 0.00 15 1005.2
20240724201517 91 360 2.0 7.0 0.00 0.00 0.00 14 1005.2
20240724200019 91 360 1.0 6.0 0.00 0.00 0.00 15 1005.2
20240724194514 91 360 3.0 7.0 0.00 0.00 0.00 16 1005.4
20240724193015 90 360 1.0 9.0 0.00 0.00 0.00 16 1005.5
20240724191512 90 360 0.0 0.0 0.00 0.00 0.00 15 1005.5
20240724190008 90 360 6.0 10.0 0.00 0.00 0.00 16 1005.6
20240724184507 89 360 1.0 6.0 0.00 0.00 0.00 17 1005.7
20240724183006 90 360 3.0 6.0 0.00 0.00 0.00 18 1005.8
20240724181602 88 360 0.0 4.0 0.00 0.00 0.00 20 1005.9
20240724180058 89 360 0.0 4.0 0.00 0.00 0.00 21 1005.9
20240724174554 87 360 0.0 4.0 0.00 0.00 0.00 23 1006.0
20240724173042 85 360 0.0 3.0 0.00 0.00 0.00 26 1006.1
20240724171536 85 360 0.0 3.0 0.00 0.00 0.00 27 1006.3
20240724170030 82 360 0.0 0.0 0.00 0.00 0.00 29 1006.3
20240724164525 81 360 1.0 5.0 0.00 0.00 0.00 29 1006.4
20240724163022 81 360 0.0 3.0 0.00 0.00 0.00 30 1006.3
20240724161517 79 360 0.0 3.0 0.00 0.00 0.00 30 1006.4
20240724160012 79 360 0.0 4.0 0.00 0.00 0.00 31 1006.5
20240724154509 77 360 0.0 4.0 0.00 0.00 0.00 36 1006.6
20240724153059 76 360 0.0 5.0 0.00 0.00 0.00 37 1006.6
20240724151548 75 360 0.0 4.0 0.00 0.00 0.00 39 1006.7
20240724150044 73 360 2.0 6.0 0.00 0.00 0.00 40 1006.8
20240724144540 72 360 1.0 8.0 0.00 0.00 0.00 44 1006.8
20240724143035 71 360 3.0 8.0 0.00 0.00 0.00 46 1006.7
20240724141530 70 360 2.0 6.0 0.00 0.00 0.00 47 1006.7
20240724140026 69 360 2.0 6.0 0.00 0.00 0.00 50 1006.6
20240724134522 67 360 2.0 6.0 0.00 0.00 0.00 52 1006.5
20240724133006 66 360 0.0 4.0 0.00 0.00 0.00 56 1006.5
20240724131505 65 360 0.0 5.0 0.00 0.00 0.00 59 1006.5
20240724130102 64 360 2.0 7.0 0.00 0.00 0.00 62 1006.5
20240724124555 63 360 1.0 4.0 0.00 0.00 0.00 64 1006.3
20240724123051 63 360 0.0 3.0 0.00 0.00 0.00 64 1006.2
20240724121548 63 360 0.0 2.0 0.00 0.00 0.00 62 1006.1
20240724120057 63 360 0.0 3.0 0.00 0.00 0.00 61 1006.0
20240724114542 64 360 0.0 3.0 0.00 0.00 0.00 60 1005.9
20240724113030 64 360 1.0 5.0 0.00 0.00 0.00 60 1005.7
20240724111530 64 360 1.0 4.0 0.00 0.00 0.00 60 1005.6
20240724110028 65 360 0.0 3.0 0.00 0.00 0.00 59 1005.6
20240724104528 65 360 0.0 3.0 0.00 0.00 0.00 59 1005.6
20240724103030 65 360 0.0 3.0 0.00 0.00 0.00 59 1005.4
20240724101523 65 360 0.0 2.0 0.00 0.00 0.00 59 1005.4
20240724100045 65 360 0.0 3.0 0.00 0.00 0.00 59 1005.4
20240724094522 65 360 2.0 5.0 0.00 0.00 0.00 58 1005.2
20240724093022 66 360 0.0 0.0 0.00 0.00 0.00 57 1005.3
20240724091523 66 360 0.0 3.0 0.00 0.00 0.00 56 1005.2
20240724090014 67 360 0.0 5.0 0.00 0.00 0.00 55 1005.1
20240724084515 67 360 0.0 4.0 0.00 0.00 0.00 55 1005.1
20240724083010 67 360 2.0 5.0 0.00 0.00 0.00 53 1005.1
20240724081513 68 360 2.0 6.0 0.00 0.00 0.00 51 1005.0
20240724080055 68 360 1.0 4.0 0.00 0.00 0.00 49 1005.0
20240724074557 68 360 1.0 5.0 0.00 0.00 0.00 49 1005.0
20240724073059 68 360 0.0 4.0 0.00 0.00 0.00 49 1005.0
20240724071553 68 360 0.0 3.0 0.00 0.00 0.00 50 1005.1
20240724070055 69 360 0.0 0.0 0.00 0.00 0.00 50 1005.1
20240724064601 69 360 0.0 4.0 0.00 0.00 0.00 50 1005.1
20240724063049 70 360 1.0 5.0 0.00 0.00 0.00 49 1005.1
20240724061604 70 360 1.0 6.0 0.00 0.00 0.00 48 1005.0
20240724060023 71 360 0.0 0.0 0.00 0.00 0.00 46 1004.8
20240724054521 72 360 0.0 0.0 0.00 0.00 0.00 44 1004.8
20240724053002 73 360 0.0 0.0 0.00 0.00 0.00 42 1004.8
20240724051502 74 360 0.0 0.0 0.00 0.00 0.00 41 1004.8
20240724050126 75 360 0.0 0.0 0.00 0.00 0.00 38 1004.7
20240724044620 76 360 0.0 0.0 0.00 0.00 0.00 35 1004.8
20240724043052 77 360 0.0 0.0 0.00 0.00 0.00 31 1004.6
20240724041549 77 360 0.0 0.0 0.00 0.00 0.00 33 1004.5
20240724040048 77 360 0.0 0.0 0.00 0.00 0.00 34 1004.5
20240724034556 77 360 0.0 0.0 0.00 0.00 0.00 36 1004.4
20240724033055 78 360 0.0 0.0 0.00 0.00 0.00 34 1004.2
20240724031548 79 360 0.0 0.0 0.00 0.00 0.00 31 1004.0
20240724030030 80 360 0.0 0.0 0.00 0.00 0.00 29 1003.8
20240724024529 80 360 0.0 0.0 0.00 0.00 0.00 29 1003.8